Time;durP1;ratioP1;P1;durP2;ratioP2;P2;SDS_P1;SDS_P2;PMS_P1;PMS_P2;Temp;Humidity;BMP_temperature;BMP_pressure;BME280_temperature;BME280_humidity;BME280_pressure;Samples;Min_cycle;Max_cycle;Signal;HPM_P1;HPM_P2
2023/11/03 00:00:34;;;;;;;0.30;0.20;;;8.20;99.90;;;;;;5132555;27;20418;-63
2023/11/03 00:03:05;;;;;;;0.40;0.20;;;8.20;99.90;;;;;;5133286;27;20418;-60
2023/11/03 00:05:32;;;;;;;1.25;0.20;;;8.10;99.90;;;;;;5133898;27;20725;-59
2023/11/03 00:07:59;;;;;;;0.40;0.10;;;8.00;99.90;;;;;;5133734;27;20426;-62
2023/11/03 00:10:27;;;;;;;0.50;0.10;;;8.00;99.90;;;;;;5134974;27;20840;-61
2023/11/03 00:12:55;;;;;;;0.73;0.10;;;7.90;99.90;;;;;;5134753;27;20415;-60
2023/11/03 00:15:22;;;;;;;0.40;0.20;;;7.90;99.90;;;;;;5135363;27;20425;-61
2023/11/03 00:17:50;;;;;;;0.85;0.20;;;8.00;99.90;;;;;;5134459;27;20509;-60
2023/11/03 00:20:18;;;;;;;1.10;0.20;;;8.00;99.90;;;;;;5133648;27;20410;-60
2023/11/03 00:22:45;;;;;;;0.50;0.20;;;7.90;99.90;;;;;;5133611;27;20418;-60
2023/11/03 00:25:13;;;;;;;0.50;0.20;;;7.80;99.90;;;;;;5131750;27;20897;-60
2023/11/03 00:27:42;;;;;;;0.50;0.20;;;7.80;99.90;;;;;;5133456;27;20710;-60
2023/11/03 00:30:11;;;;;;;1.50;0.20;;;7.70;99.90;;;;;;5133703;27;20430;-60
2023/11/03 00:32:38;;;;;;;0.90;0.20;;;7.70;99.90;;;;;;5133322;27;20638;-59
2023/11/03 00:35:08;;;;;;;0.47;0.20;;;7.70;99.90;;;;;;5133757;27;20422;-59
2023/11/03 00:37:36;;;;;;;1.27;0.20;;;7.60;99.90;;;;;;5133568;27;20429;-60
2023/11/03 00:40:04;;;;;;;0.45;0.20;;;7.70;99.90;;;;;;5134132;27;20414;-60
2023/11/03 00:42:31;;;;;;;0.60;0.20;;;7.70;99.90;;;;;;5132752;27;20410;-60
2023/11/03 00:44:58;;;;;;;0.60;0.20;;;7.80;99.90;;;;;;5133535;27;20414;-60
2023/11/03 00:47:25;;;;;;;1.40;0.20;;;7.90;99.90;;;;;;5133368;27;20417;-60
2023/11/03 00:49:53;;;;;;;1.00;0.30;;;7.90;99.90;;;;;;5132326;27;20853;-60
2023/11/03 00:52:22;;;;;;;0.60;0.20;;;7.90;99.90;;;;;;5132708;27;20426;-59
2023/11/03 00:54:50;;;;;;;0.50;0.20;;;7.80;99.90;;;;;;5132593;27;20463;-60
2023/11/03 00:57:17;;;;;;;0.77;0.17;;;7.70;99.90;;;;;;5133105;27;20423;-59
2023/11/03 00:59:44;;;;;;;0.50;0.20;;;7.60;99.90;;;;;;5133541;27;20418;-60
2023/11/03 01:02:13;;;;;;;0.40;0.20;;;7.50;99.90;;;;;;5133388;27;20422;-60
2023/11/03 01:04:40;;;;;;;1.00;0.20;;;7.50;99.90;;;;;;5134219;27;20425;-60
2023/11/03 01:07:08;;;;;;;0.50;0.20;;;7.40;99.90;;;;;;5133773;27;20425;-60
2023/11/03 01:09:36;;;;;;;0.60;0.28;;;7.40;99.90;;;;;;5133382;27;20419;-59
2023/11/03 01:12:03;;;;;;;0.47;0.20;;;7.40;99.90;;;;;;5134837;27;20423;-60
2023/11/03 01:14:32;;;;;;;0.50;0.20;;;7.40;99.90;;;;;;5134516;27;20453;-59
2023/11/03 01:17:00;;;;;;;0.80;0.20;;;7.40;99.90;;;;;;5133187;27;20422;-60
2023/11/03 01:19:28;;;;;;;0.68;0.20;;;7.50;99.90;;;;;;5136620;27;20517;-60
2023/11/03 01:21:55;;;;;;;1.90;0.20;;;7.50;99.90;;;;;;5137662;27;20437;-59
2023/11/03 01:24:25;;;;;;;1.30;0.20;;;7.60;99.90;;;;;;5136539;27;20453;-60
2023/11/03 01:26:54;;;;;;;1.50;0.30;;;7.60;99.90;;;;;;5136169;27;20411;-60
2023/11/03 01:29:21;;;;;;;0.93;0.20;;;7.70;99.90;;;;;;5135132;27;20415;-60
2023/11/03 01:31:48;;;;;;;0.63;0.20;;;7.70;94.70;;;;;;5135861;27;20794;-59
2023/11/03 01:34:15;;;;;;;0.60;0.30;;;7.70;97.60;;;;;;5135084;27;20418;-59
2023/11/03 01:36:42;;;;;;;0.88;0.20;;;7.70;99.90;;;;;;5135581;27;20433;-60
2023/11/03 01:39:10;;;;;;;1.20;0.20;;;7.70;99.70;;;;;;5136473;27;20422;-59
2023/11/03 01:41:37;;;;;;;1.27;0.30;;;7.70;99.90;;;;;;5136536;27;20406;-60
2023/11/03 01:44:09;;;;;;;2.30;0.30;;;7.50;99.90;;;;;;5136892;27;20414;-60
2023/11/03 01:46:37;;;;;;;1.08;0.28;;;7.40;99.90;;;;;;5137266;27;20771;-60
2023/11/03 01:49:06;;;;;;;1.17;0.30;;;7.30;99.90;;;;;;5137347;27;20839;-60
2023/11/03 01:51:33;;;;;;;0.80;0.30;;;7.30;99.90;;;;;;5137024;27;20499;-60
2023/11/03 01:54:01;;;;;;;1.33;0.30;;;7.40;99.90;;;;;;5136216;27;20858;-60
2023/11/03 01:56:28;;;;;;;1.50;0.30;;;7.40;99.90;;;;;;5137018;27;20410;-60
2023/11/03 01:58:56;;;;;;;1.40;0.40;;;7.50;99.90;;;;;;5137324;27;20430;-60
2023/11/03 02:01:24;;;;;;;1.23;0.20;;;7.50;99.90;;;;;;5136887;27;20422;-60
2023/11/03 02:03:51;;;;;;;1.00;0.20;;;7.50;99.90;;;;;;5136427;27;20762;-60
2023/11/03 02:06:18;;;;;;;0.70;0.30;;;7.60;99.90;;;;;;5136825;27;20432;-60
2023/11/03 02:08:46;;;;;;;0.60;0.30;;;7.60;99.90;;;;;;5117881;27;20555;-59
2023/11/03 02:11:13;;;;;;;1.20;0.20;;;7.60;99.90;;;;;;5136565;27;20493;-60
2023/11/03 02:13:40;;;;;;;1.13;0.20;;;7.60;99.90;;;;;;5136310;27;20438;-60
2023/11/03 02:16:08;;;;;;;2.10;0.30;;;7.60;99.90;;;;;;5136536;27;20422;-60
2023/11/03 02:18:36;;;;;;;0.88;0.20;;;7.60;99.90;;;;;;5135164;27;20419;-59
2023/11/03 02:21:04;;;;;;;0.40;0.20;;;7.50;99.90;;;;;;5136198;27;20871;-59
2023/11/03 02:23:35;;;;;;;2.10;0.30;;;7.50;99.90;;;;;;5136345;27;20410;-60
2023/11/03 02:26:04;;;;;;;0.93;0.20;;;7.40;99.90;;;;;;5136568;27;20497;-60
2023/11/03 02:28:31;;;;;;;1.77;0.30;;;7.30;99.90;;;;;;5136004;27;20446;-60
2023/11/03 02:30:58;;;;;;;1.52;0.60;;;7.10;99.90;;;;;;5135798;27;20419;-60
2023/11/03 02:33:26;;;;;;;3.13;0.50;;;7.00;99.90;;;;;;5135589;27;20426;-60
2023/11/03 02:35:53;;;;;;;1.80;0.40;;;7.00;99.90;;;;;;5135436;27;20738;-60
2023/11/03 02:38:20;;;;;;;0.85;0.20;;;6.90;99.90;;;;;;5136022;27;20410;-60
2023/11/03 02:40:54;;;;;;;0.80;0.20;;;7.00;99.90;;;;;;5135887;27;20422;-60
2023/11/03 02:43:21;;;;;;;0.50;0.20;;;7.00;99.90;;;;;;5135703;27;20438;-60
2023/11/03 02:45:49;;;;;;;0.50;0.20;;;7.10;99.90;;;;;;5134846;27;20414;-60
2023/11/03 02:48:16;;;;;;;1.70;0.30;;;7.10;99.90;;;;;;5134776;27;20520;-60
2023/11/03 02:50:43;;;;;;;1.20;0.40;;;7.10;99.90;;;;;;5134778;27;20410;-59
2023/11/03 02:53:11;;;;;;;0.70;0.20;;;7.10;99.90;;;;;;5135470;27;20856;-59
2023/11/03 02:55:38;;;;;;;2.30;0.22;;;7.10;99.90;;;;;;5136086;27;20517;-59
2023/11/03 02:58:06;;;;;;;0.50;0.20;;;7.10;99.90;;;;;;5135806;27;20849;-60
2023/11/03 03:00:34;;;;;;;0.60;0.30;;;7.10;99.90;;;;;;5134511;27;20438;-60
2023/11/03 03:03:01;;;;;;;1.40;0.25;;;7.10;99.90;;;;;;5135818;27;20422;-60
2023/11/03 03:05:28;;;;;;;0.60;0.20;;;7.10;99.90;;;;;;5135493;27;20714;-58
2023/11/03 03:07:55;;;;;;;0.50;0.20;;;7.10;99.90;;;;;;5135656;27;20429;-60
2023/11/03 03:10:22;;;;;;;0.60;0.20;;;7.00;99.90;;;;;;5135058;27;20414;-60
2023/11/03 03:12:49;;;;;;;0.70;0.25;;;7.00;99.90;;;;;;5135127;27;20418;-60
2023/11/03 03:15:18;;;;;;;1.00;0.20;;;7.00;99.90;;;;;;5135469;27;20433;-60
2023/11/03 03:17:45;;;;;;;0.90;0.30;;;6.90;99.90;;;;;;5135339;27;20468;-60
2023/11/03 03:20:12;;;;;;;2.13;0.25;;;6.80;99.90;;;;;;5134744;27;20411;-60
2023/11/03 03:22:39;;;;;;;1.38;0.30;;;6.80;99.90;;;;;;5134868;27;20436;-60
2023/11/03 03:25:07;;;;;;;1.60;0.30;;;6.80;99.90;;;;;;5133999;27;20426;-60
2023/11/03 03:27:34;;;;;;;1.40;0.20;;;6.90;99.90;;;;;;5133827;27;20426;-60
2023/11/03 03:30:02;;;;;;;1.92;0.25;;;6.80;99.90;;;;;;5134273;27;20415;-61
2023/11/03 03:32:30;;;;;;;0.67;0.20;;;6.90;99.90;;;;;;5134103;27;20410;-61
2023/11/03 03:34:58;;;;;;;1.50;0.30;;;6.90;99.90;;;;;;5134128;27;20434;-60
2023/11/03 03:37:25;;;;;;;1.50;0.20;;;6.90;99.90;;;;;;5132775;27;20728;-60
2023/11/03 03:39:52;;;;;;;1.30;0.20;;;7.00;99.90;;;;;;5131919;27;20426;-60
2023/11/03 03:42:19;;;;;;;1.00;0.20;;;7.00;99.90;;;;;;5131541;27;20418;-60
2023/11/03 03:44:47;;;;;;;0.60;0.30;;;7.00;99.90;;;;;;5133145;27;20410;-60
2023/11/03 03:47:14;;;;;;;1.30;0.20;;;7.00;99.90;;;;;;5132600;27;20414;-58
2023/11/03 03:49:43;;;;;;;1.30;0.20;;;7.00;99.90;;;;;;5133055;27;20415;-59
2023/11/03 03:52:10;;;;;;;1.20;0.20;;;6.90;99.90;;;;;;5133646;27;20505;-59
2023/11/03 03:54:37;;;;;;;0.50;0.20;;;7.00;99.90;;;;;;5133673;27;20743;-59
2023/11/03 03:57:05;;;;;;;1.00;0.20;;;7.00;99.90;;;;;;5133946;27;20422;-59
2023/11/03 03:59:32;;;;;;;1.20;0.20;;;7.00;99.90;;;;;;5133584;27;20854;-59
2023/11/03 04:01:59;;;;;;;1.50;0.20;;;7.00;99.90;;;;;;5134015;27;20441;-59
2023/11/03 04:04:26;;;;;;;1.98;0.30;;;7.10;99.90;;;;;;5133969;27;20829;-58
2023/11/03 04:06:55;;;;;;;0.40;0.20;;;7.10;99.90;;;;;;5133813;27;20421;-59
2023/11/03 04:09:23;;;;;;;0.50;0.20;;;7.10;99.90;;;;;;5132857;27;20509;-59
2023/11/03 04:11:50;;;;;;;0.50;0.20;;;7.10;99.90;;;;;;5132546;27;20416;-59
2023/11/03 04:14:17;;;;;;;0.60;0.20;;;7.10;99.90;;;;;;5132311;27;20426;-59
2023/11/03 04:16:44;;;;;;;0.50;0.20;;;7.10;99.90;;;;;;5133144;27;20418;-59
2023/11/03 04:19:11;;;;;;;0.70;0.20;;;7.10;99.90;;;;;;5133348;27;20736;-59
2023/11/03 04:21:39;;;;;;;0.40;0.20;;;7.10;99.90;;;;;;5132101;27;20422;-59
2023/11/03 04:24:08;;;;;;;0.60;0.20;;;7.10;99.90;;;;;;5132208;27;20736;-59
2023/11/03 04:26:35;;;;;;;0.40;0.20;;;7.20;99.90;;;;;;5131863;27;20437;-58
2023/11/03 04:29:02;;;;;;;0.95;0.30;;;7.20;99.90;;;;;;5131799;27;20418;-59
2023/11/03 04:31:29;;;;;;;0.50;0.20;;;7.20;99.90;;;;;;5132255;27;20414;-61
2023/11/03 04:33:56;;;;;;;0.40;0.20;;;7.20;99.90;;;;;;5131721;27;20920;-59
2023/11/03 04:36:24;;;;;;;0.50;0.20;;;7.30;99.90;;;;;;5130706;27;20434;-59
2023/11/03 04:38:51;;;;;;;0.70;0.20;;;7.30;99.90;;;;;;5132135;27;20497;-59
2023/11/03 04:41:19;;;;;;;0.70;0.30;;;7.40;99.90;;;;;;5131859;27;20507;-60
2023/11/03 04:43:46;;;;;;;0.80;0.30;;;7.30;99.90;;;;;;5131699;27;20422;-60
2023/11/03 04:46:13;;;;;;;0.70;0.20;;;7.30;99.90;;;;;;5131488;27;20410;-60
2023/11/03 04:48:41;;;;;;;1.00;0.30;;;7.30;99.90;;;;;;5131860;27;20417;-60
2023/11/03 04:51:08;;;;;;;0.93;0.20;;;7.30;99.90;;;;;;5130775;27;20418;-60
2023/11/03 04:53:35;;;;;;;0.40;0.20;;;7.40;99.90;;;;;;5135808;27;20421;-59
2023/11/03 04:56:02;;;;;;;0.50;0.30;;;7.40;99.90;;;;;;5136780;27;20433;-59
2023/11/03 04:58:30;;;;;;;0.50;0.20;;;7.40;99.90;;;;;;5136876;27;20478;-59
2023/11/03 05:00:58;;;;;;;1.65;0.20;;;7.30;99.90;;;;;;5137395;27;20418;-59
2023/11/03 05:03:25;;;;;;;0.63;0.20;;;7.30;99.90;;;;;;5137105;27;20881;-59
2023/11/03 05:05:52;;;;;;;0.82;0.20;;;7.40;99.90;;;;;;5135917;27;20821;-60
2023/11/03 05:08:19;;;;;;;0.80;0.10;;;7.30;99.90;;;;;;5135469;27;20411;-59
2023/11/03 05:10:46;;;;;;;0.40;0.20;;;7.30;99.90;;;;;;5135332;27;20450;-59
2023/11/03 05:13:15;;;;;;;1.40;0.20;;;7.30;99.90;;;;;;5134974;27;20414;-59
2023/11/03 05:15:45;;;;;;;0.40;0.20;;;7.30;99.90;;;;;;5134451;27;20740;-59
2023/11/03 05:18:12;;;;;;;0.50;0.20;;;7.40;99.90;;;;;;5134305;27;20961;-59
2023/11/03 05:20:40;;;;;;;1.10;0.30;;;7.40;99.90;;;;;;5134216;27;20417;-59
2023/11/03 05:23:07;;;;;;;1.60;0.20;;;7.40;99.90;;;;;;5133656;27;20418;-59
2023/11/03 05:25:34;;;;;;;0.60;0.20;;;7.40;99.90;;;;;;5133853;27;20422;-59
2023/11/03 05:28:01;;;;;;;0.80;0.20;;;7.50;99.90;;;;;;5135240;27;20528;-60
2023/11/03 05:30:28;;;;;;;0.55;0.20;;;7.50;99.90;;;;;;5135483;27;20535;-60
2023/11/03 05:32:56;;;;;;;0.90;0.30;;;7.40;99.90;;;;;;5135095;27;20482;-60
2023/11/03 05:35:23;;;;;;;1.00;0.20;;;7.50;99.90;;;;;;5134986;27;20457;-59
2023/11/03 05:37:51;;;;;;;0.90;0.20;;;7.50;99.90;;;;;;5134842;27;20703;-60
2023/11/03 05:40:18;;;;;;;1.13;0.20;;;7.50;99.90;;;;;;5135668;27;21064;-60
2023/11/03 05:42:45;;;;;;;0.60;0.20;;;7.50;99.90;;;;;;5135077;27;20426;-60
2023/11/03 05:45:12;;;;;;;0.40;0.20;;;7.50;99.90;;;;;;5136536;27;20691;-59
2023/11/03 05:47:39;;;;;;;0.55;0.28;;;7.50;99.90;;;;;;5136304;27;20822;-60
2023/11/03 05:50:11;;;;;;;0.90;0.20;;;7.50;99.90;;;;;;5136397;27;20707;-58
2023/11/03 05:52:38;;;;;;;0.43;0.20;;;7.60;99.90;;;;;;5136016;27;20430;-59
2023/11/03 05:55:06;;;;;;;0.50;0.20;;;7.60;99.90;;;;;;5136560;27;20438;-59
2023/11/03 05:57:33;;;;;;;0.70;0.20;;;7.50;99.90;;;;;;5136466;27;20743;-59
2023/11/03 06:00:00;;;;;;;0.70;0.30;;;7.50;99.90;;;;;;5135637;27;20439;-58
2023/11/03 06:02:27;;;;;;;1.30;0.20;;;7.50;99.90;;;;;;5135692;27;20428;-58
2023/11/03 06:04:55;;;;;;;0.60;0.20;;;7.50;99.90;;;;;;5135273;27;20865;-59
2023/11/03 06:07:23;;;;;;;0.40;0.20;;;7.50;99.90;;;;;;5135754;27;20418;-59
2023/11/03 06:09:51;;;;;;;0.50;0.20;;;7.50;99.90;;;;;;5135928;27;20441;-59
2023/11/03 06:12:18;;;;;;;0.80;0.20;;;7.50;99.90;;;;;;5135030;27;20825;-59
2023/11/03 06:14:45;;;;;;;1.30;0.20;;;7.50;99.90;;;;;;5134221;27;20838;-58
2023/11/03 06:17:12;;;;;;;0.60;0.20;;;7.60;99.90;;;;;;5134238;27;20422;-59
2023/11/03 06:19:39;;;;;;;0.70;0.20;;;7.70;99.90;;;;;;5133979;27;20458;-59
2023/11/03 06:22:07;;;;;;;1.00;0.20;;;7.70;99.90;;;;;;5132656;27;20780;-59
2023/11/03 06:24:35;;;;;;;1.80;0.23;;;7.80;99.90;;;;;;5132460;27;20423;-59
2023/11/03 06:27:02;;;;;;;0.95;0.25;;;7.70;99.90;;;;;;5132580;27;20475;-58
2023/11/03 06:29:29;;;;;;;0.50;0.20;;;7.60;99.90;;;;;;5133312;27;20752;-59
2023/11/03 06:31:56;;;;;;;0.50;0.20;;;7.70;99.90;;;;;;5132987;27;20454;-59
2023/11/03 06:34:23;;;;;;;0.90;0.30;;;7.80;99.90;;;;;;5134428;27;20432;-59
2023/11/03 06:36:50;;;;;;;0.50;0.20;;;7.90;99.90;;;;;;5133435;27;20470;-59
2023/11/03 06:39:18;;;;;;;1.10;0.30;;;7.90;99.80;;;;;;5133904;27;20418;-59
2023/11/03 06:41:47;;;;;;;0.98;0.20;;;7.80;99.90;;;;;;5133483;27;20421;-59
2023/11/03 06:44:14;;;;;;;1.20;0.20;;;7.70;99.90;;;;;;5134166;27;20410;-59
2023/11/03 06:46:41;;;;;;;1.70;0.30;;;7.60;99.90;;;;;;5133391;27;20417;-59
2023/11/03 06:49:11;;;;;;;1.70;0.20;;;7.60;99.90;;;;;;5133358;27;20464;-60
2023/11/03 06:51:38;;;;;;;1.00;0.30;;;7.70;99.90;;;;;;5133706;27;20411;-59
2023/11/03 06:54:07;;;;;;;1.13;0.20;;;7.70;99.90;;;;;;5133090;27;20836;-60
2023/11/03 06:56:34;;;;;;;0.80;0.30;;;7.70;99.90;;;;;;5131326;27;20426;-60
2023/11/03 06:59:03;;;;;;;0.52;0.20;;;7.60;99.90;;;;;;5131003;27;20435;-59
2023/11/03 07:01:31;;;;;;;0.57;0.20;;;7.70;99.90;;;;;;5131765;27;20521;-59
2023/11/03 07:03:59;;;;;;;0.50;0.20;;;7.70;99.90;;;;;;5131204;27;20420;-59
2023/11/03 07:06:27;;;;;;;1.40;0.20;;;7.70;99.90;;;;;;5131268;27;20425;-59
2023/11/03 07:08:54;;;;;;;0.90;0.30;;;7.70;99.90;;;;;;5130123;27;20430;-60
2023/11/03 07:11:24;;;;;;;1.80;0.30;;;7.80;99.90;;;;;;5129083;27;20866;-60
2023/11/03 07:13:52;;;;;;;0.73;0.25;;;7.80;99.90;;;;;;5128593;27;20429;-59
2023/11/03 07:16:20;;;;;;;0.40;0.20;;;7.80;99.90;;;;;;5126510;27;20498;-59
2023/11/03 07:18:47;;;;;;;0.50;0.30;;;7.80;99.90;;;;;;5125623;27;20718;-60
2023/11/03 07:21:14;;;;;;;0.60;0.30;;;7.80;99.90;;;;;;5128566;27;20422;-61
2023/11/03 07:23:42;;;;;;;1.50;0.30;;;7.90;99.90;;;;;;5140168;27;20429;-61
2023/11/03 07:26:12;;;;;;;0.40;0.20;;;7.90;99.90;;;;;;5132021;27;20406;-60
2023/11/03 07:28:40;;;;;;;0.50;0.25;;;7.90;99.90;;;;;;5129743;27;20438;-60
2023/11/03 07:31:10;;;;;;;1.10;0.20;;;8.00;99.90;;;;;;5114335;27;20432;-60
2023/11/03 07:33:40;;;;;;;0.50;0.20;;;8.10;99.90;;;;;;5140731;27;20446;-61
2023/11/03 07:36:07;;;;;;;1.50;0.20;;;8.10;95.20;;;;;;5151800;27;20428;-61
2023/11/03 07:38:35;;;;;;;1.30;0.20;;;8.20;99.90;;;;;;5149665;27;20408;-59
2023/11/03 07:41:02;;;;;;;0.40;0.20;;;8.30;78.70;;;;;;5151685;27;20469;-61
2023/11/03 07:43:30;;;;;;;0.90;0.30;;;8.30;67.60;;;;;;5133179;27;20434;-61
2023/11/03 07:45:57;;;;;;;1.20;0.20;;;8.30;74.60;;;;;;5110150;28;20799;-61
2023/11/03 07:48:24;;;;;;;1.00;0.30;;;8.30;64.10;;;;;;5125204;27;20412;-61
2023/11/03 07:50:56;;;;;;;0.70;0.20;;;8.40;77.10;;;;;;5149869;27;20487;-60
2023/11/03 07:53:23;;;;;;;0.50;0.20;;;8.50;63.90;;;;;;5151586;27;20409;-59
2023/11/03 07:55:50;;;;;;;1.60;0.30;;;8.50;51.40;;;;;;5126707;27;20478;-60
2023/11/03 07:58:17;;;;;;;0.68;0.20;;;8.60;50.80;;;;;;5130234;27;20517;-60
2023/11/03 08:00:45;;;;;;;0.90;0.20;;;8.50;51.40;;;;;;5130195;27;20426;-60
2023/11/03 08:03:12;;;;;;;0.80;0.20;;;8.50;56.80;;;;;;5130425;27;20422;-60
2023/11/03 08:05:39;;;;;;;0.50;0.20;;;8.30;63.80;;;;;;5133910;27;20880;-60
2023/11/03 08:08:10;;;;;;;0.60;0.28;;;8.30;86.10;;;;;;5134617;27;20410;-60
2023/11/03 08:10:37;;;;;;;0.88;0.20;;;8.50;84.10;;;;;;5131193;27;20431;-60
2023/11/03 08:13:05;;;;;;;0.40;0.20;;;8.50;79.90;;;;;;5128862;27;20606;-60
2023/11/03 08:15:32;;;;;;;1.30;0.30;;;8.60;83.90;;;;;;5119632;27;20494;-60
2023/11/03 08:18:00;;;;;;;0.63;0.20;;;8.60;58.90;;;;;;5128159;27;20819;-60
2023/11/03 08:20:27;;;;;;;0.50;0.20;;;8.70;71.80;;;;;;5131733;27;20758;-60
2023/11/03 08:22:54;;;;;;;1.10;0.20;;;8.70;71.50;;;;;;5131798;27;20426;-60
2023/11/03 08:25:22;;;;;;;2.25;0.20;;;8.70;59.20;;;;;;5130939;27;20418;-60
2023/11/03 08:27:49;;;;;;;0.70;0.30;;;8.80;64.30;;;;;;5133022;27;20490;-60
2023/11/03 08:30:16;;;;;;;0.60;0.20;;;8.80;57.60;;;;;;5132502;27;20433;-60
2023/11/03 08:32:46;;;;;;;0.80;0.20;;;8.80;50.90;;;;;;5130813;27;20423;-60
2023/11/03 08:35:14;;;;;;;0.77;0.20;;;8.80;59.90;;;;;;5131609;27;20513;-61
2023/11/03 08:37:41;;;;;;;1.42;0.30;;;8.90;56.30;;;;;;5133739;27;20426;-60
2023/11/03 08:40:09;;;;;;;0.40;0.20;;;9.00;50.10;;;;;;5133262;27;21060;-60
2023/11/03 08:42:38;;;;;;;0.40;0.17;;;9.00;44.60;;;;;;5126838;27;20430;-60
2023/11/03 08:45:08;;;;;;;1.20;0.30;;;9.20;34.60;;;;;;5135325;27;20422;-60
2023/11/03 08:47:35;;;;;;;0.50;0.20;;;9.20;20.40;;;;;;5131913;27;20462;-60
2023/11/03 08:50:02;;;;;;;0.40;0.20;;;9.20;22.60;;;;;;5133070;27;20411;-60
2023/11/03 08:52:30;;;;;;;0.65;0.30;;;9.30;26.00;;;;;;5132325;27;20449;-60
2023/11/03 08:54:58;;;;;;;1.70;0.20;;;9.20;15.40;;;;;;5132720;27;20750;-60
2023/11/03 08:57:26;;;;;;;1.08;0.20;;;9.20;26.90;;;;;;5134016;27;20526;-60
2023/11/03 08:59:54;;;;;;;1.80;0.30;;;9.30;31.90;;;;;;5133041;27;20418;-60
2023/11/03 09:02:22;;;;;;;0.80;0.30;;;9.50;16.80;;;;;;5134156;27;20422;-60
2023/11/03 09:04:49;;;;;;;1.00;0.20;;;9.50;16.50;;;;;;5134639;27;20518;-60
2023/11/03 09:07:16;;;;;;;1.52;0.20;;;9.50;20.00;;;;;;5134171;27;20407;-60
2023/11/03 09:09:43;;;;;;;1.10;0.20;;;9.60;6.20;;;;;;5134318;27;20418;-60
2023/11/03 09:12:12;;;;;;;0.40;0.20;;;9.50;1.00;;;;;;5134602;27;20418;-59
2023/11/03 09:14:40;;;;;;;0.50;0.20;;;9.40;8.20;;;;;;5127146;27;20406;-59
2023/11/03 09:17:09;;;;;;;0.50;0.20;;;9.30;12.60;;;;;;5131628;27;20526;-59
2023/11/03 09:19:38;;;;;;;0.60;0.20;;;9.40;20.30;;;;;;5134190;27;20842;-59
2023/11/03 09:22:05;;;;;;;0.50;0.20;;;9.40;4.60;;;;;;5133931;27;20422;-60
2023/11/03 09:24:32;;;;;;;0.90;0.20;;;9.30;19.90;;;;;;5132708;27;20471;-60
2023/11/03 09:27:00;;;;;;;0.90;0.20;;;9.30;11.70;;;;;;5131393;27;20837;-59
2023/11/03 09:29:27;;;;;;;1.70;0.20;;;9.30;13.20;;;;;;5131699;27;20414;-60
2023/11/03 09:31:55;;;;;;;0.40;0.20;;;9.40;10.50;;;;;;5134255;27;20418;-60
2023/11/03 09:34:23;;;;;;;0.50;0.20;;;9.50;11.70;;;;;;5135106;27;20426;-60
2023/11/03 09:36:51;;;;;;;0.40;0.20;;;9.60;1.40;;;;;;5135254;27;20441;-60
2023/11/03 09:39:18;;;;;;;0.60;0.10;;;9.70;1.00;;;;;;5134049;27;20446;-59
2023/11/03 09:42:02;;;;;;;1.10;0.20;;;9.80;1.00;;;;;;5134580;27;20412;-59
2023/11/03 09:44:30;;;;;;;0.50;0.20;;;9.90;1.00;;;;;;5135996;27;20516;-59
2023/11/03 09:47:00;;;;;;;0.90;0.20;;;9.90;1.00;;;;;;5135779;27;20728;-59
2023/11/03 09:49:28;;;;;;;1.20;0.30;;;10.10;1.00;;;;;;5134366;27;20867;-62
2023/11/03 09:52:03;;;;;;;1.92;0.20;;;10.30;1.00;;;;;;5133521;27;20419;-63
2023/11/03 09:54:35;;;;;;;0.90;0.20;;;10.40;1.00;;;;;;5130228;27;20438;-62
2023/11/03 09:57:03;;;;;;;1.10;0.20;;;10.40;1.00;;;;;;5133693;27;20676;-62
2023/11/03 09:59:34;;;;;;;1.15;0.40;;;10.50;1.00;;;;;;5134493;27;20414;-61
2023/11/03 10:02:04;;;;;;;1.10;0.20;;;10.50;1.00;;;;;;5133933;27;20425;-60
2023/11/03 10:04:33;;;;;;;0.47;0.20;;;10.50;1.00;;;;;;5132917;27;20418;-61
2023/11/03 10:07:01;;;;;;;0.47;0.20;;;10.30;1.00;;;;;;5132993;27;20415;-62
2023/11/03 10:09:28;;;;;;;0.88;0.30;;;10.20;1.00;;;;;;5133541;27;20718;-61
2023/11/03 10:11:56;;;;;;;2.00;0.40;;;10.30;1.00;;;;;;5131856;27;20418;-61
2023/11/03 10:14:24;;;;;;;1.20;0.30;;;10.50;1.00;;;;;;5132808;27;20414;-62
2023/11/03 10:16:51;;;;;;;0.70;0.20;;;10.50;1.00;;;;;;5132589;27;20727;-61
2023/11/03 10:19:20;;;;;;;0.40;0.20;;;10.60;1.00;;;;;;5133667;27;20407;-61
2023/11/03 10:21:48;;;;;;;0.60;0.15;;;10.70;1.00;;;;;;5133085;27;20471;-61
2023/11/03 10:24:16;;;;;;;0.57;0.20;;;10.60;1.00;;;;;;5132759;27;20422;-61
2023/11/03 10:26:43;;;;;;;0.40;0.20;;;10.60;1.00;;;;;;5131360;27;20406;-61
2023/11/03 10:29:12;;;;;;;0.50;0.10;;;10.70;1.00;;;;;;5129966;27;20418;-61
2023/11/03 10:31:40;;;;;;;0.90;0.20;;;10.60;1.00;;;;;;5132447;27;20422;-62
2023/11/03 10:34:08;;;;;;;0.70;0.30;;;10.60;1.00;;;;;;5132366;27;20522;-61
2023/11/03 10:36:35;;;;;;;0.30;0.10;;;10.60;1.00;;;;;;5132639;27;20437;-61
2023/11/03 10:39:05;;;;;;;0.77;0.20;;;10.50;1.00;;;;;;5132279;27;20503;-63
2023/11/03 10:41:32;;;;;;;0.80;0.20;;;10.70;1.00;;;;;;5130408;27;20421;-61
2023/11/03 10:44:00;;;;;;;0.60;0.17;;;10.90;1.00;;;;;;5130763;27;20417;-61
2023/11/03 10:46:37;;;;;;;0.85;0.20;;;11.10;1.00;;;;;;5128447;27;20460;-61
2023/11/03 10:49:12;;;;;;;0.40;0.20;;;11.00;1.00;;;;;;5131117;27;20462;-62
2023/11/03 10:51:45;;;;;;;0.40;0.10;;;10.90;1.00;;;;;;5131252;27;20506;-62
2023/11/03 10:54:26;;;;;;;1.00;0.20;;;11.10;1.00;;;;;;5128679;27;20864;-62
2023/11/03 10:56:54;;;;;;;0.40;0.20;;;11.20;1.00;;;;;;5130698;27;20429;-62
2023/11/03 10:59:23;;;;;;;0.60;0.20;;;11.20;1.00;;;;;;5132149;27;20411;-62
2023/11/03 11:01:58;;;;;;;0.50;0.20;;;11.30;1.00;;;;;;5144007;27;20507;-63
2023/11/03 11:04:32;;;;;;;0.30;0.10;;;11.30;1.00;;;;;;5152487;27;20444;-63
2023/11/03 11:07:05;;;;;;;0.30;0.10;;;11.30;99.90;;;;;;5130846;27;20489;-65
2023/11/03 11:09:40;;;;;;;1.42;0.15;;;11.40;99.90;;;;;;5131265;27;20431;-64
2023/11/03 11:12:08;;;;;;;0.30;0.10;;;11.40;99.90;;;;;;5134818;27;20427;-63
2023/11/03 11:14:37;;;;;;;0.30;0.10;;;11.30;99.90;;;;;;5131452;27;20402;-63
2023/11/03 11:17:09;;;;;;;0.40;0.20;;;11.20;1.00;;;;;;5133218;27;20756;-64
2023/11/03 11:19:38;;;;;;;0.30;0.20;;;11.20;1.00;;;;;;5129852;27;20450;-63
2023/11/03 11:22:08;;;;;;;0.50;0.10;;;11.20;1.00;;;;;;5129434;27;20422;-63
2023/11/03 11:24:38;;;;;;;0.35;0.10;;;11.30;1.00;;;;;;5127923;27;20465;-63
2023/11/03 11:27:15;;;;;;;0.45;0.10;;;11.30;1.00;;;;;;5120406;27;20430;-63
2023/11/03 11:29:43;;;;;;;0.60;0.20;;;11.30;1.00;;;;;;5128757;27;20824;-62
2023/11/03 11:32:12;;;;;;;0.38;0.20;;;11.30;1.00;;;;;;5129027;27;20779;-62
2023/11/03 11:34:40;;;;;;;0.50;0.20;;;11.30;1.00;;;;;;5121590;27;20738;-62
2023/11/03 11:37:26;;;;;;;1.40;0.20;;;11.40;1.00;;;;;;5122072;27;20487;-62
2023/11/03 11:39:56;;;;;;;0.50;0.20;;;11.40;99.90;;;;;;5121724;27;20483;-57
2023/11/03 11:42:25;;;;;;;0.70;0.10;;;11.30;99.90;;;;;;5117225;27;20439;-59
2023/11/03 11:44:54;;;;;;;0.40;0.10;;;11.40;1.00;;;;;;5121247;27;20435;-59
2023/11/03 11:47:25;;;;;;;0.40;0.20;;;11.50;99.90;;;;;;5119490;27;20530;-60
2023/11/03 11:49:54;;;;;;;0.55;0.10;;;11.30;99.90;;;;;;5130328;27;20425;-60
2023/11/03 11:52:26;;;;;;;0.30;0.10;;;11.30;99.90;;;;;;5125807;27;21030;-59
2023/11/03 11:54:56;;;;;;;0.40;0.10;;;11.40;99.90;;;;;;5129782;27;20446;-59
2023/11/03 11:57:25;;;;;;;0.30;0.10;;;11.50;99.90;;;;;;5120428;27;20873;-60
2023/11/03 11:59:54;;;;;;;0.57;0.10;;;11.50;99.90;;;;;;5123840;27;20718;-60
2023/11/03 12:02:22;;;;;;;0.30;0.10;;;11.40;99.90;;;;;;5126009;27;20441;-60
2023/11/03 12:04:50;;;;;;;0.30;0.10;;;11.40;99.90;;;;;;5124476;27;20429;-60
2023/11/03 12:07:21;;;;;;;0.45;0.10;;;11.50;99.90;;;;;;5129148;27;20433;-59
2023/11/03 12:09:50;;;;;;;0.40;0.10;;;11.50;99.90;;;;;;5129996;27;20423;-59
2023/11/03 12:12:19;;;;;;;0.30;0.10;;;11.60;99.90;;;;;;5128774;27;20750;-59
2023/11/03 12:14:47;;;;;;;0.70;0.10;;;11.50;99.90;;;;;;5119770;27;20462;-59
2023/11/03 12:17:14;;;;;;;0.30;0.10;;;11.50;99.90;;;;;;5128848;27;21019;-59
2023/11/03 12:19:44;;;;;;;1.33;0.20;;;11.50;99.90;;;;;;5130246;27;20845;-59
2023/11/03 12:22:20;;;;;;;0.40;0.10;;;11.60;99.90;;;;;;5129037;27;20889;-59
2023/11/03 12:24:48;;;;;;;0.40;0.10;;;11.50;99.90;;;;;;5128760;27;20488;-59
2023/11/03 12:27:16;;;;;;;0.68;0.10;;;11.50;99.90;;;;;;5127261;27;20468;-60
2023/11/03 12:29:45;;;;;;;0.50;0.20;;;11.60;99.90;;;;;;5113294;27;20420;-60
2023/11/03 12:32:13;;;;;;;0.40;0.10;;;11.70;99.90;;;;;;5107141;27;20500;-61
2023/11/03 12:34:42;;;;;;;0.40;0.10;;;11.70;99.90;;;;;;5112720;27;20424;-60
2023/11/03 12:37:09;;;;;;;0.40;0.10;;;11.70;99.90;;;;;;5106306;27;20458;-59
2023/11/03 12:39:50;;;;;;;0.70;0.10;;;11.80;99.90;;;;;;5129227;27;20517;-59
2023/11/03 12:42:18;;;;;;;0.30;0.10;;;11.80;99.90;;;;;;5127359;27;20423;-59
2023/11/03 12:44:56;;;;;;;0.80;0.10;;;11.90;99.90;;;;;;5126469;27;20432;-60
2023/11/03 12:47:45;;;;;;;0.40;0.10;;;11.70;99.90;;;;;;5120756;27;20506;-60
2023/11/03 12:50:19;;;;;;;0.60;0.10;;;11.80;99.90;;;;;;5124413;27;20518;-59
2023/11/03 12:52:47;;;;;;;0.30;0.10;;;11.80;99.90;;;;;;5128676;27;20438;-59
2023/11/03 12:55:23;;;;;;;0.30;0.10;;;11.80;99.90;;;;;;5132635;27;20746;-59
2023/11/03 12:57:51;;;;;;;0.30;0.10;;;11.80;99.90;;;;;;5133610;27;20487;-58
2023/11/03 13:00:23;;;;;;;0.30;0.10;;;11.80;99.90;;;;;;5132338;27;20425;-59